sensor_id;sensor_type;location;lat;lon;timestamp;temperature;humidity
22290;DHT22;11313;50.116;8.424;2023-06-24T00:02:11;24.70;54.60
22290;DHT22;11313;50.116;8.424;2023-06-24T00:04:36;24.70;54.60
22290;DHT22;11313;50.116;8.424;2023-06-24T00:07:02;24.70;54.60
22290;DHT22;11313;50.116;8.424;2023-06-24T00:09:28;24.70;54.60
22290;DHT22;11313;50.116;8.424;2023-06-24T00:11:57;24.70;54.60
22290;DHT22;11313;50.116;8.424;2023-06-24T00:14:27;24.70;55.20
22290;DHT22;11313;50.116;8.424;2023-06-24T00:16:53;24.70;54.50
22290;DHT22;11313;50.116;8.424;2023-06-24T00:19:24;24.70;54.50
22290;DHT22;11313;50.116;8.424;2023-06-24T00:21:51;24.70;54.50
22290;DHT22;11313;50.116;8.424;2023-06-24T00:24:17;24.70;54.50
22290;DHT22;11313;50.116;8.424;2023-06-24T00:26:45;24.70;54.60
22290;DHT22;11313;50.116;8.424;2023-06-24T00:29:11;24.60;54.50
22290;DHT22;11313;50.116;8.424;2023-06-24T00:31:36;24.70;54.50
22290;DHT22;11313;50.116;8.424;2023-06-24T00:34:02;24.60;54.50
22290;DHT22;11313;50.116;8.424;2023-06-24T00:36:27;24.60;54.40
22290;DHT22;11313;50.116;8.424;2023-06-24T00:38:54;24.70;54.50
22290;DHT22;11313;50.116;8.424;2023-06-24T00:41:20;24.60;54.40
22290;DHT22;11313;50.116;8.424;2023-06-24T00:43:46;24.60;54.40
22290;DHT22;11313;50.116;8.424;2023-06-24T00:46:12;24.70;54.50
22290;DHT22;11313;50.116;8.424;2023-06-24T00:48:39;24.60;54.40
22290;DHT22;11313;50.116;8.424;2023-06-24T00:51:04;24.60;54.40
22290;DHT22;11313;50.116;8.424;2023-06-24T00:53:30;24.60;54.40
22290;DHT22;11313;50.116;8.424;2023-06-24T00:55:56;24.60;54.40
22290;DHT22;11313;50.116;8.424;2023-06-24T00:58:28;24.60;54.40
22290;DHT22;11313;50.116;8.424;2023-06-24T01:00:57;24.60;54.40
22290;DHT22;11313;50.116;8.424;2023-06-24T01:03:26;24.60;54.40
22290;DHT22;11313;50.116;8.424;2023-06-24T01:05:54;24.70;54.50
22290;DHT22;11313;50.116;8.424;2023-06-24T01:08:19;24.60;54.40
22290;DHT22;11313;50.116;8.424;2023-06-24T01:10:51;24.60;54.40
22290;DHT22;11313;50.116;8.424;2023-06-24T01:13:17;24.60;54.50
22290;DHT22;11313;50.116;8.424;2023-06-24T01:15:43;24.60;54.40
22290;DHT22;11313;50.116;8.424;2023-06-24T01:18:24;24.60;54.40
22290;DHT22;11313;50.116;8.424;2023-06-24T01:20:59;24.60;54.40
22290;DHT22;11313;50.116;8.424;2023-06-24T01:31:47;24.50;54.40
22290;DHT22;11313;50.116;8.424;2023-06-24T01:34:29;24.60;54.40
22290;DHT22;11313;50.116;8.424;2023-06-24T01:37:12;24.60;54.40
22290;DHT22;11313;50.116;8.424;2023-06-24T01:39:49;24.60;54.40
22290;DHT22;11313;50.116;8.424;2023-06-24T01:42:16;24.60;54.40
22290;DHT22;11313;50.116;8.424;2023-06-24T01:44:43;24.60;54.40
22290;DHT22;11313;50.116;8.424;2023-06-24T01:47:10;24.60;54.40
22290;DHT22;11313;50.116;8.424;2023-06-24T01:49:40;24.60;54.40
22290;DHT22;11313;50.116;8.424;2023-06-24T01:52:08;24.60;54.40
22290;DHT22;11313;50.116;8.424;2023-06-24T01:54:36;24.60;54.40
22290;DHT22;11313;50.116;8.424;2023-06-24T01:57:06;24.50;54.30
22290;DHT22;11313;50.116;8.424;2023-06-24T01:59:34;24.60;54.40
22290;DHT22;11313;50.116;8.424;2023-06-24T02:02:00;24.60;54.40
22290;DHT22;11313;50.116;8.424;2023-06-24T02:04:28;24.60;54.40
22290;DHT22;11313;50.116;8.424;2023-06-24T02:07:01;24.60;54.40
22290;DHT22;11313;50.116;8.424;2023-06-24T02:09:28;24.60;54.40
22290;DHT22;11313;50.116;8.424;2023-06-24T02:11:57;24.60;54.40
22290;DHT22;11313;50.116;8.424;2023-06-24T02:14:24;24.60;54.40
22290;DHT22;11313;50.116;8.424;2023-06-24T02:16:51;24.60;54.40
22290;DHT22;11313;50.116;8.424;2023-06-24T02:19:22;24.60;54.40
22290;DHT22;11313;50.116;8.424;2023-06-24T02:21:48;24.60;54.40
22290;DHT22;11313;50.116;8.424;2023-06-24T02:24:17;24.60;54.40
22290;DHT22;11313;50.116;8.424;2023-06-24T02:26:43;24.60;54.40
22290;DHT22;11313;50.116;8.424;2023-06-24T02:29:10;24.60;54.40
22290;DHT22;11313;50.116;8.424;2023-06-24T02:31:38;24.60;55.00
22290;DHT22;11313;50.116;8.424;2023-06-24T02:34:03;24.60;54.40
22290;DHT22;11313;50.116;8.424;2023-06-24T02:36:29;24.60;54.40
22290;DHT22;11313;50.116;8.424;2023-06-24T02:38:54;24.60;54.40
22290;DHT22;11313;50.116;8.424;2023-06-24T02:41:20;24.60;54.40
22290;DHT22;11313;50.116;8.424;2023-06-24T02:43:45;24.50;54.30
22290;DHT22;11313;50.116;8.424;2023-06-24T02:46:11;24.60;54.40
22290;DHT22;11313;50.116;8.424;2023-06-24T02:48:37;24.60;54.40
22290;DHT22;11313;50.116;8.424;2023-06-24T02:51:05;24.60;54.40
22290;DHT22;11313;50.116;8.424;2023-06-24T02:53:32;24.60;54.40
22290;DHT22;11313;50.116;8.424;2023-06-24T02:55:58;24.50;54.30
22290;DHT22;11313;50.116;8.424;2023-06-24T02:58:24;24.60;54.30
22290;DHT22;11313;50.116;8.424;2023-06-24T03:00:59;24.50;54.30
22290;DHT22;11313;50.116;8.424;2023-06-24T03:03:26;24.60;54.40
22290;DHT22;11313;50.116;8.424;2023-06-24T03:05:53;24.60;54.30
22290;DHT22;11313;50.116;8.424;2023-06-24T03:08:19;24.60;54.40
22290;DHT22;11313;50.116;8.424;2023-06-24T03:10:45;24.60;54.30
22290;DHT22;11313;50.116;8.424;2023-06-24T03:13:10;24.60;54.30
22290;DHT22;11313;50.116;8.424;2023-06-24T03:15:36;24.60;54.40
22290;DHT22;11313;50.116;8.424;2023-06-24T03:18:01;24.60;54.30
22290;DHT22;11313;50.116;8.424;2023-06-24T03:20:26;24.60;54.30
22290;DHT22;11313;50.116;8.424;2023-06-24T03:22:52;24.60;54.30
22290;DHT22;11313;50.116;8.424;2023-06-24T03:25:18;24.60;54.30
22290;DHT22;11313;50.116;8.424;2023-06-24T03:27:43;24.60;54.30
22290;DHT22;11313;50.116;8.424;2023-06-24T03:30:11;24.60;54.30
22290;DHT22;11313;50.116;8.424;2023-06-24T03:32:36;24.60;54.30
22290;DHT22;11313;50.116;8.424;2023-06-24T03:35:03;24.60;54.20
22290;DHT22;11313;50.116;8.424;2023-06-24T03:37:29;24.60;54.20
22290;DHT22;11313;50.116;8.424;2023-06-24T03:39:55;24.60;54.20
22290;DHT22;11313;50.116;8.424;2023-06-24T03:42:21;24.60;54.20
22290;DHT22;11313;50.116;8.424;2023-06-24T03:44:47;24.60;54.20
22290;DHT22;11313;50.116;8.424;2023-06-24T03:47:12;24.60;54.20
22290;DHT22;11313;50.116;8.424;2023-06-24T03:49:38;24.60;54.10
22290;DHT22;11313;50.116;8.424;2023-06-24T03:52:04;24.60;54.20
22290;DHT22;11313;50.116;8.424;2023-06-24T03:54:31;24.60;54.10
22290;DHT22;11313;50.116;8.424;2023-06-24T03:56:56;24.70;54.20
22290;DHT22;11313;50.116;8.424;2023-06-24T03:59:22;24.70;54.10
22290;DHT22;11313;50.116;8.424;2023-06-24T04:01:47;24.60;54.10
22290;DHT22;11313;50.116;8.424;2023-06-24T04:04:13;24.70;54.10
22290;DHT22;11313;50.116;8.424;2023-06-24T04:06:38;24.70;54.10
22290;DHT22;11313;50.116;8.424;2023-06-24T04:09:04;24.70;54.10
22290;DHT22;11313;50.116;8.424;2023-06-24T04:11:31;24.70;54.00
22290;DHT22;11313;50.116;8.424;2023-06-24T04:13:57;24.70;54.10
22290;DHT22;11313;50.116;8.424;2023-06-24T04:16:22;24.70;54.00
22290;DHT22;11313;50.116;8.424;2023-06-24T04:18:48;24.70;54.00
22290;DHT22;11313;50.116;8.424;2023-06-24T04:21:13;24.70;54.00
22290;DHT22;11313;50.116;8.424;2023-06-24T04:23:39;24.70;54.00
22290;DHT22;11313;50.116;8.424;2023-06-24T04:26:05;24.70;53.90
22290;DHT22;11313;50.116;8.424;2023-06-24T04:28:30;24.70;53.90
22290;DHT22;11313;50.116;8.424;2023-06-24T04:30:56;24.70;53.90
22290;DHT22;11313;50.116;8.424;2023-06-24T04:33:21;24.80;53.90
22290;DHT22;11313;50.116;8.424;2023-06-24T04:35:48;24.70;53.90
22290;DHT22;11313;50.116;8.424;2023-06-24T04:38:14;24.70;53.90
22290;DHT22;11313;50.116;8.424;2023-06-24T04:40:44;24.70;53.80
22290;DHT22;11313;50.116;8.424;2023-06-24T04:43:09;24.80;53.90
22290;DHT22;11313;50.116;8.424;2023-06-24T04:45:35;24.80;53.80
22290;DHT22;11313;50.116;8.424;2023-06-24T04:48:00;24.80;53.80
22290;DHT22;11313;50.116;8.424;2023-06-24T04:50:26;24.80;53.80
22290;DHT22;11313;50.116;8.424;2023-06-24T04:52:54;24.80;53.70
22290;DHT22;11313;50.116;8.424;2023-06-24T04:55:22;24.80;53.80
22290;DHT22;11313;50.116;8.424;2023-06-24T04:57:47;24.90;53.70
22290;DHT22;11313;50.116;8.424;2023-06-24T05:00:13;24.90;53.70
22290;DHT22;11313;50.116;8.424;2023-06-24T05:02:39;24.90;53.70
22290;DHT22;11313;50.116;8.424;2023-06-24T05:05:05;24.90;53.70
22290;DHT22;11313;50.116;8.424;2023-06-24T05:07:30;24.90;53.70
22290;DHT22;11313;50.116;8.424;2023-06-24T05:09:56;24.90;53.60
22290;DHT22;11313;50.116;8.424;2023-06-24T05:12:21;24.90;53.70
22290;DHT22;11313;50.116;8.424;2023-06-24T05:14:53;25.00;54.00
22290;DHT22;11313;50.116;8.424;2023-06-24T05:17:21;25.00;54.00
22290;DHT22;11313;50.116;8.424;2023-06-24T05:19:47;25.00;54.00
22290;DHT22;11313;50.116;8.424;2023-06-24T05:22:12;25.00;53.80
22290;DHT22;11313;50.116;8.424;2023-06-24T05:24:38;25.00;53.60
22290;DHT22;11313;50.116;8.424;2023-06-24T05:27:05;25.00;53.40
22290;DHT22;11313;50.116;8.424;2023-06-24T05:29:31;25.00;53.30
22290;DHT22;11313;50.116;8.424;2023-06-24T05:31:57;25.00;53.10
22290;DHT22;11313;50.116;8.424;2023-06-24T05:34:23;25.00;53.60
22290;DHT22;11313;50.116;8.424;2023-06-24T05:36:49;25.00;52.80
22290;DHT22;11313;50.116;8.424;2023-06-24T05:39:14;25.00;52.70
22290;DHT22;11313;50.116;8.424;2023-06-24T05:41:40;25.10;52.80
22290;DHT22;11313;50.116;8.424;2023-06-24T05:44:09;25.10;52.70
22290;DHT22;11313;50.116;8.424;2023-06-24T05:46:37;25.10;52.60
22290;DHT22;11313;50.116;8.424;2023-06-24T05:49:03;25.10;52.60
22290;DHT22;11313;50.116;8.424;2023-06-24T05:51:29;25.10;52.60
22290;DHT22;11313;50.116;8.424;2023-06-24T05:53:55;25.10;52.50
22290;DHT22;11313;50.116;8.424;2023-06-24T05:56:21;25.10;52.50
22290;DHT22;11313;50.116;8.424;2023-06-24T05:58:48;25.10;52.40
22290;DHT22;11313;50.116;8.424;2023-06-24T06:01:13;25.10;52.40
22290;DHT22;11313;50.116;8.424;2023-06-24T06:03:39;25.20;52.50
22290;DHT22;11313;50.116;8.424;2023-06-24T06:06:04;25.20;52.50
22290;DHT22;11313;50.116;8.424;2023-06-24T06:08:30;25.20;52.50
22290;DHT22;11313;50.116;8.424;2023-06-24T06:10:56;25.20;52.50
22290;DHT22;11313;50.116;8.424;2023-06-24T06:13:21;25.20;52.40
22290;DHT22;11313;50.116;8.424;2023-06-24T06:15:47;25.20;52.40
22290;DHT22;11313;50.116;8.424;2023-06-24T06:18:12;25.20;52.40
22290;DHT22;11313;50.116;8.424;2023-06-24T06:20:38;25.30;52.40
22290;DHT22;11313;50.116;8.424;2023-06-24T06:23:03;25.30;52.50
22290;DHT22;11313;50.116;8.424;2023-06-24T06:25:29;25.30;52.40
22290;DHT22;11313;50.116;8.424;2023-06-24T06:27:54;25.30;52.40
22290;DHT22;11313;50.116;8.424;2023-06-24T06:30:20;25.30;52.40
22290;DHT22;11313;50.116;8.424;2023-06-24T06:32:45;25.30;52.50
22290;DHT22;11313;50.116;8.424;2023-06-24T06:35:11;25.30;52.40
22290;DHT22;11313;50.116;8.424;2023-06-24T06:37:37;25.30;52.40
22290;DHT22;11313;50.116;8.424;2023-06-24T06:40:02;25.30;52.40
22290;DHT22;11313;50.116;8.424;2023-06-24T06:42:29;25.30;52.40
22290;DHT22;11313;50.116;8.424;2023-06-24T06:44:55;25.30;52.50
22290;DHT22;11313;50.116;8.424;2023-06-24T06:47:20;25.30;52.50
22290;DHT22;11313;50.116;8.424;2023-06-24T06:49:46;25.30;51.70
22290;DHT22;11313;50.116;8.424;2023-06-24T06:52:11;25.10;50.50
22290;DHT22;11313;50.116;8.424;2023-06-24T06:54:37;25.00;49.80
22290;DHT22;11313;50.116;8.424;2023-06-24T06:57:03;24.80;49.30
22290;DHT22;11313;50.116;8.424;2023-06-24T06:59:32;24.70;48.70
22290;DHT22;11313;50.116;8.424;2023-06-24T07:01:57;24.50;47.90
22290;DHT22;11313;50.116;8.424;2023-06-24T07:04:23;24.40;47.40
22290;DHT22;11313;50.116;8.424;2023-06-24T07:06:49;24.20;47.10
22290;DHT22;11313;50.116;8.424;2023-06-24T07:09:15;24.00;47.30
22290;DHT22;11313;50.116;8.424;2023-06-24T07:11:41;23.80;47.10
22290;DHT22;11313;50.116;8.424;2023-06-24T07:14:07;23.80;47.10
22290;DHT22;11313;50.116;8.424;2023-06-24T07:16:33;23.60;47.00
22290;DHT22;11313;50.116;8.424;2023-06-24T07:18:58;23.60;46.90
22290;DHT22;11313;50.116;8.424;2023-06-24T07:21:24;23.50;47.00
22290;DHT22;11313;50.116;8.424;2023-06-24T07:23:49;23.40;47.10
22290;DHT22;11313;50.116;8.424;2023-06-24T07:26:15;23.30;47.00
22290;DHT22;11313;50.116;8.424;2023-06-24T07:28:40;23.20;47.00
22290;DHT22;11313;50.116;8.424;2023-06-24T07:31:06;23.10;47.20
22290;DHT22;11313;50.116;8.424;2023-06-24T07:33:31;23.10;47.30
22290;DHT22;11313;50.116;8.424;2023-06-24T07:35:57;23.00;47.20
22290;DHT22;11313;50.116;8.424;2023-06-24T07:38:23;23.00;47.50
22290;DHT22;11313;50.116;8.424;2023-06-24T07:40:48;23.00;47.90
22290;DHT22;11313;50.116;8.424;2023-06-24T07:43:14;22.90;48.00
22290;DHT22;11313;50.116;8.424;2023-06-24T07:45:39;23.00;49.00
22290;DHT22;11313;50.116;8.424;2023-06-24T07:48:05;23.00;48.50
22290;DHT22;11313;50.116;8.424;2023-06-24T07:50:32;23.00;48.80
22290;DHT22;11313;50.116;8.424;2023-06-24T07:52:58;23.10;48.90
22290;DHT22;11313;50.116;8.424;2023-06-24T07:55:23;23.10;49.00
22290;DHT22;11313;50.116;8.424;2023-06-24T07:57:49;23.20;49.30
22290;DHT22;11313;50.116;8.424;2023-06-24T08:00:15;23.30;49.50
22290;DHT22;11313;50.116;8.424;2023-06-24T08:02:41;23.30;49.70
22290;DHT22;11313;50.116;8.424;2023-06-24T08:05:08;23.30;50.10
22290;DHT22;11313;50.116;8.424;2023-06-24T08:07:34;23.30;50.60
22290;DHT22;11313;50.116;8.424;2023-06-24T08:10:00;23.40;51.10
22290;DHT22;11313;50.116;8.424;2023-06-24T08:12:26;23.40;51.60
22290;DHT22;11313;50.116;8.424;2023-06-24T08:14:51;23.50;52.10
22290;DHT22;11313;50.116;8.424;2023-06-24T08:17:17;23.50;52.60
22290;DHT22;11313;50.116;8.424;2023-06-24T08:19:42;23.50;53.20
22290;DHT22;11313;50.116;8.424;2023-06-24T08:22:08;23.50;53.40
22290;DHT22;11313;50.116;8.424;2023-06-24T08:24:33;23.60;53.70
22290;DHT22;11313;50.116;8.424;2023-06-24T08:26:59;23.60;53.80
22290;DHT22;11313;50.116;8.424;2023-06-24T08:29:24;23.60;54.00
22290;DHT22;11313;50.116;8.424;2023-06-24T08:31:50;23.60;54.20
22290;DHT22;11313;50.116;8.424;2023-06-24T08:34:15;23.60;54.30
22290;DHT22;11313;50.116;8.424;2023-06-24T08:36:41;23.60;54.50
22290;DHT22;11313;50.116;8.424;2023-06-24T08:39:08;23.60;54.60
22290;DHT22;11313;50.116;8.424;2023-06-24T08:41:33;23.60;54.60
22290;DHT22;11313;50.116;8.424;2023-06-24T08:43:59;23.60;54.70
22290;DHT22;11313;50.116;8.424;2023-06-24T08:46:25;23.60;54.80
22290;DHT22;11313;50.116;8.424;2023-06-24T08:48:58;23.60;54.90
22290;DHT22;11313;50.116;8.424;2023-06-24T08:51:27;23.70;55.30
22290;DHT22;11313;50.116;8.424;2023-06-24T08:53:53;23.60;55.00
22290;DHT22;11313;50.116;8.424;2023-06-24T08:56:19;23.70;55.10
22290;DHT22;11313;50.116;8.424;2023-06-24T08:58:45;23.70;55.00
22290;DHT22;11313;50.116;8.424;2023-06-24T09:01:11;23.60;53.60
22290;DHT22;11313;50.116;8.424;2023-06-24T09:03:36;23.60;52.60
22290;DHT22;11313;50.116;8.424;2023-06-24T09:06:02;23.50;51.90
22290;DHT22;11313;50.116;8.424;2023-06-24T09:08:27;23.40;51.20
22290;DHT22;11313;50.116;8.424;2023-06-24T09:10:54;23.30;50.60
22290;DHT22;11313;50.116;8.424;2023-06-24T09:13:34;23.10;50.20
22290;DHT22;11313;50.116;8.424;2023-06-24T09:16:14;23.10;49.90
22290;DHT22;11313;50.116;8.424;2023-06-24T09:18:41;22.90;49.10
22290;DHT22;11313;50.116;8.424;2023-06-24T09:21:07;22.80;48.90
22290;DHT22;11313;50.116;8.424;2023-06-24T09:23:37;22.70;48.60
22290;DHT22;11313;50.116;8.424;2023-06-24T09:26:03;22.60;48.40
22290;DHT22;11313;50.116;8.424;2023-06-24T09:28:28;22.60;48.30
22290;DHT22;11313;50.116;8.424;2023-06-24T09:31:07;22.60;48.10
22290;DHT22;11313;50.116;8.424;2023-06-24T09:33:33;22.50;47.80
22290;DHT22;11313;50.116;8.424;2023-06-24T09:36:02;22.40;47.70
22290;DHT22;11313;50.116;8.424;2023-06-24T09:38:35;22.40;47.80
22290;DHT22;11313;50.116;8.424;2023-06-24T09:41:02;22.30;47.90
22290;DHT22;11313;50.116;8.424;2023-06-24T09:43:29;22.30;48.00
22290;DHT22;11313;50.116;8.424;2023-06-24T09:45:56;22.30;48.10
22290;DHT22;11313;50.116;8.424;2023-06-24T09:48:22;22.30;48.30
22290;DHT22;11313;50.116;8.424;2023-06-24T09:50:48;22.20;48.50
22290;DHT22;11313;50.116;8.424;2023-06-24T09:53:14;22.20;48.70
22290;DHT22;11313;50.116;8.424;2023-06-24T09:55:40;22.30;49.00
22290;DHT22;11313;50.116;8.424;2023-06-24T09:58:10;22.30;49.30
22290;DHT22;11313;50.116;8.424;2023-06-24T10:00:36;22.30;49.70
22290;DHT22;11313;50.116;8.424;2023-06-24T10:03:02;22.30;50.00
22290;DHT22;11313;50.116;8.424;2023-06-24T10:05:28;22.40;50.40
22290;DHT22;11313;50.116;8.424;2023-06-24T10:07:53;22.40;50.70
22290;DHT22;11313;50.116;8.424;2023-06-24T10:10:19;22.50;51.10
22290;DHT22;11313;50.116;8.424;2023-06-24T10:12:45;22.40;51.50
22290;DHT22;11313;50.116;8.424;2023-06-24T10:15:10;22.50;51.60
22290;DHT22;11313;50.116;8.424;2023-06-24T10:17:37;22.50;51.70
22290;DHT22;11313;50.116;8.424;2023-06-24T10:20:06;22.50;51.90
22290;DHT22;11313;50.116;8.424;2023-06-24T10:22:32;22.50;52.30
22290;DHT22;11313;50.116;8.424;2023-06-24T10:25:02;22.60;52.80
22290;DHT22;11313;50.116;8.424;2023-06-24T10:27:38;22.70;53.20
22290;DHT22;11313;50.116;8.424;2023-06-24T10:30:04;22.70;53.60
22290;DHT22;11313;50.116;8.424;2023-06-24T10:32:40;22.70;53.90
22290;DHT22;11313;50.116;8.424;2023-06-24T10:35:07;22.80;54.10
22290;DHT22;11313;50.116;8.424;2023-06-24T10:37:33;22.80;54.20
22290;DHT22;11313;50.116;8.424;2023-06-24T10:39:59;22.80;54.30
22290;DHT22;11313;50.116;8.424;2023-06-24T10:42:30;22.90;54.50
22290;DHT22;11313;50.116;8.424;2023-06-24T10:44:57;22.90;54.60
22290;DHT22;11313;50.116;8.424;2023-06-24T10:47:23;22.90;54.80
22290;DHT22;11313;50.116;8.424;2023-06-24T10:49:50;23.00;54.80
22290;DHT22;11313;50.116;8.424;2023-06-24T10:52:21;23.00;54.90
22290;DHT22;11313;50.116;8.424;2023-06-24T10:54:47;23.00;55.00
22290;DHT22;11313;50.116;8.424;2023-06-24T10:57:13;23.00;55.10
22290;DHT22;11313;50.116;8.424;2023-06-24T10:59:44;23.00;55.20
22290;DHT22;11313;50.116;8.424;2023-06-24T11:02:18;23.00;55.20
22290;DHT22;11313;50.116;8.424;2023-06-24T11:04:46;23.00;55.20
22290;DHT22;11313;50.116;8.424;2023-06-24T11:07:12;23.00;55.20
22290;DHT22;11313;50.116;8.424;2023-06-24T11:09:38;23.10;55.20
22290;DHT22;11313;50.116;8.424;2023-06-24T11:12:04;23.00;55.20
22290;DHT22;11313;50.116;8.424;2023-06-24T11:14:29;23.10;55.20
22290;DHT22;11313;50.116;8.424;2023-06-24T11:16:55;23.00;55.20
22290;DHT22;11313;50.116;8.424;2023-06-24T11:19:20;23.00;55.30
22290;DHT22;11313;50.116;8.424;2023-06-24T11:21:46;23.10;55.40
22290;DHT22;11313;50.116;8.424;2023-06-24T11:24:11;23.10;56.10
22290;DHT22;11313;50.116;8.424;2023-06-24T11:26:38;23.10;55.50
22290;DHT22;11313;50.116;8.424;2023-06-24T11:29:12;23.10;55.50
22290;DHT22;11313;50.116;8.424;2023-06-24T11:31:38;23.10;55.50
22290;DHT22;11313;50.116;8.424;2023-06-24T11:34:04;23.10;55.50
22290;DHT22;11313;50.116;8.424;2023-06-24T11:36:29;23.10;55.60
22290;DHT22;11313;50.116;8.424;2023-06-24T11:38:55;23.10;55.60
22290;DHT22;11313;50.116;8.424;2023-06-24T11:41:21;23.10;55.60
22290;DHT22;11313;50.116;8.424;2023-06-24T11:43:47;23.10;55.70
22290;DHT22;11313;50.116;8.424;2023-06-24T11:46:25;23.10;55.70
22290;DHT22;11313;50.116;8.424;2023-06-24T11:48:52;23.10;55.70
22290;DHT22;11313;50.116;8.424;2023-06-24T11:51:17;23.10;55.80
22290;DHT22;11313;50.116;8.424;2023-06-24T11:53:44;23.10;56.50
22290;DHT22;11313;50.116;8.424;2023-06-24T11:56:11;23.10;55.80
22290;DHT22;11313;50.116;8.424;2023-06-24T11:58:37;23.10;55.90
22290;DHT22;11313;50.116;8.424;2023-06-24T12:01:03;23.10;55.90
22290;DHT22;11313;50.116;8.424;2023-06-24T12:03:29;23.10;56.00
22290;DHT22;11313;50.116;8.424;2023-06-24T12:05:57;23.10;56.00
22290;DHT22;11313;50.116;8.424;2023-06-24T12:08:23;23.10;56.00
22290;DHT22;11313;50.116;8.424;2023-06-24T12:10:48;23.10;56.00
22290;DHT22;11313;50.116;8.424;2023-06-24T12:13:14;23.10;56.00
22290;DHT22;11313;50.116;8.424;2023-06-24T12:15:40;23.10;56.10
22290;DHT22;11313;50.116;8.424;2023-06-24T12:18:06;23.10;56.10
22290;DHT22;11313;50.116;8.424;2023-06-24T12:20:32;23.10;56.10
22290;DHT22;11313;50.116;8.424;2023-06-24T12:22:58;23.10;56.10
22290;DHT22;11313;50.116;8.424;2023-06-24T12:25:24;23.10;56.20
22290;DHT22;11313;50.116;8.424;2023-06-24T12:27:50;23.10;56.10
22290;DHT22;11313;50.116;8.424;2023-06-24T12:30:16;23.10;56.10
22290;DHT22;11313;50.116;8.424;2023-06-24T12:32:42;23.20;56.10
22290;DHT22;11313;50.116;8.424;2023-06-24T12:35:08;23.20;56.10
22290;DHT22;11313;50.116;8.424;2023-06-24T12:37:37;23.10;56.10
22290;DHT22;11313;50.116;8.424;2023-06-24T12:40:04;23.10;56.20
22290;DHT22;11313;50.116;8.424;2023-06-24T12:42:30;23.10;56.20
22290;DHT22;11313;50.116;8.424;2023-06-24T12:44:56;23.20;56.20
22290;DHT22;11313;50.116;8.424;2023-06-24T12:47:22;23.10;56.10
22290;DHT22;11313;50.116;8.424;2023-06-24T12:49:48;23.10;56.10
22290;DHT22;11313;50.116;8.424;2023-06-24T12:52:14;23.10;56.20
22290;DHT22;11313;50.116;8.424;2023-06-24T12:54:40;23.10;56.30
22290;DHT22;11313;50.116;8.424;2023-06-24T12:57:06;23.10;56.30
22290;DHT22;11313;50.116;8.424;2023-06-24T12:59:31;23.10;56.40
22290;DHT22;11313;50.116;8.424;2023-06-24T13:01:57;23.10;56.50
22290;DHT22;11313;50.116;8.424;2023-06-24T13:04:22;23.10;56.60
22290;DHT22;11313;50.116;8.424;2023-06-24T13:06:50;23.10;56.70
22290;DHT22;11313;50.116;8.424;2023-06-24T13:09:16;23.10;56.70
22290;DHT22;11313;50.116;8.424;2023-06-24T13:11:42;23.10;56.80
22290;DHT22;11313;50.116;8.424;2023-06-24T13:14:08;23.10;56.80
22290;DHT22;11313;50.116;8.424;2023-06-24T13:16:35;23.10;56.90
22290;DHT22;11313;50.116;8.424;2023-06-24T13:19:01;23.10;56.90
22290;DHT22;11313;50.116;8.424;2023-06-24T13:21:27;23.10;57.00
22290;DHT22;11313;50.116;8.424;2023-06-24T13:23:52;23.10;57.00
22290;DHT22;11313;50.116;8.424;2023-06-24T13:26:18;23.10;57.20
22290;DHT22;11313;50.116;8.424;2023-06-24T13:28:43;23.10;57.10
22290;DHT22;11313;50.116;8.424;2023-06-24T13:31:09;23.10;57.10
22290;DHT22;11313;50.116;8.424;2023-06-24T13:33:34;23.10;57.10
22290;DHT22;11313;50.116;8.424;2023-06-24T13:36:00;23.10;57.10
22290;DHT22;11313;50.116;8.424;2023-06-24T13:38:25;23.10;57.10
22290;DHT22;11313;50.116;8.424;2023-06-24T13:40:52;23.10;57.10
22290;DHT22;11313;50.116;8.424;2023-06-24T13:43:17;23.10;57.10
22290;DHT22;11313;50.116;8.424;2023-06-24T13:45:43;23.10;57.10
22290;DHT22;11313;50.116;8.424;2023-06-24T13:48:08;23.10;57.10
22290;DHT22;11313;50.116;8.424;2023-06-24T13:50:34;23.10;57.20
22290;DHT22;11313;50.116;8.424;2023-06-24T13:52:59;23.10;57.20
22290;DHT22;11313;50.116;8.424;2023-06-24T13:55:25;23.10;57.30
22290;DHT22;11313;50.116;8.424;2023-06-24T13:57:50;23.10;57.20
22290;DHT22;11313;50.116;8.424;2023-06-24T14:00:16;23.10;57.20
22290;DHT22;11313;50.116;8.424;2023-06-24T14:02:42;23.10;57.20
22290;DHT22;11313;50.116;8.424;2023-06-24T14:05:08;23.10;57.20
22290;DHT22;11313;50.116;8.424;2023-06-24T14:07:34;23.10;57.30
22290;DHT22;11313;50.116;8.424;2023-06-24T14:09:59;23.00;57.20
22290;DHT22;11313;50.116;8.424;2023-06-24T14:12:25;23.10;57.30
22290;DHT22;11313;50.116;8.424;2023-06-24T14:14:51;23.10;57.20
22290;DHT22;11313;50.116;8.424;2023-06-24T14:17:16;23.10;57.30
22290;DHT22;11313;50.116;8.424;2023-06-24T14:19:42;23.00;57.20
22290;DHT22;11313;50.116;8.424;2023-06-24T14:22:08;23.00;57.20
22290;DHT22;11313;50.116;8.424;2023-06-24T14:24:34;23.00;57.20
22290;DHT22;11313;50.116;8.424;2023-06-24T14:27:00;23.00;57.20
22290;DHT22;11313;50.116;8.424;2023-06-24T14:29:25;23.00;57.20
22290;DHT22;11313;50.116;8.424;2023-06-24T14:31:51;22.90;57.20
22290;DHT22;11313;50.116;8.424;2023-06-24T14:34:17;23.00;57.30
22290;DHT22;11313;50.116;8.424;2023-06-24T14:36:43;23.00;57.30
22290;DHT22;11313;50.116;8.424;2023-06-24T14:39:09;23.00;57.30
22290;DHT22;11313;50.116;8.424;2023-06-24T14:41:35;23.00;57.30
22290;DHT22;11313;50.116;8.424;2023-06-24T14:44:01;23.00;57.40
22290;DHT22;11313;50.116;8.424;2023-06-24T14:46:26;23.00;57.40
22290;DHT22;11313;50.116;8.424;2023-06-24T14:48:52;23.00;57.40
22290;DHT22;11313;50.116;8.424;2023-06-24T14:51:17;23.00;57.40
22290;DHT22;11313;50.116;8.424;2023-06-24T14:53:43;22.90;57.40
22290;DHT22;11313;50.116;8.424;2023-06-24T14:56:08;22.90;57.40
22290;DHT22;11313;50.116;8.424;2023-06-24T14:58:34;22.80;57.40
22290;DHT22;11313;50.116;8.424;2023-06-24T15:00:59;22.90;57.50
22290;DHT22;11313;50.116;8.424;2023-06-24T15:03:25;22.90;57.50
22290;DHT22;11313;50.116;8.424;2023-06-24T15:05:50;22.90;57.50
22290;DHT22;11313;50.116;8.424;2023-06-24T15:08:16;22.90;57.60
22290;DHT22;11313;50.116;8.424;2023-06-24T15:10:41;22.90;57.70
22290;DHT22;11313;50.116;8.424;2023-06-24T15:13:07;22.90;57.70
22290;DHT22;11313;50.116;8.424;2023-06-24T15:15:33;22.90;57.70
22290;DHT22;11313;50.116;8.424;2023-06-24T15:17:58;22.90;57.70
22290;DHT22;11313;50.116;8.424;2023-06-24T15:20:25;22.90;57.70
22290;DHT22;11313;50.116;8.424;2023-06-24T15:22:51;22.90;57.70
22290;DHT22;11313;50.116;8.424;2023-06-24T15:25:16;22.90;57.70
22290;DHT22;11313;50.116;8.424;2023-06-24T15:27:42;22.90;57.60
22290;DHT22;11313;50.116;8.424;2023-06-24T15:30:07;22.90;57.60
22290;DHT22;11313;50.116;8.424;2023-06-24T15:32:33;22.80;57.50
22290;DHT22;11313;50.116;8.424;2023-06-24T15:35:02;22.90;57.70